Impacts TAF Board
For situational awareness. Not to be used for flight planning purposes.
IDs:

KAEG - Albuquerque/Double E, NM, US

Issued at 1120 UTC 30 Oct 2020
Updated at 1624 UTC 30 Oct 2020
Potential Impact None Slight Moderate High
Time1548Z 30/17Z 30/18Z 30/19Z 30/20Z 30/21Z 30/22Z 30/23Z 31/00Z 31/01Z 31/02Z 31/03Z 31/04Z 31/05Z>>
Type OBS PRVL PRVL PRVL PRVL PRVL PRVL PRVL PRVL PRVL PRVL PRVL PRVL PRVL
VIS 10 >6 >6 >6 >6 >6 >6 >6 >6 >6 >6 >6 >6 >6
CIG -- -- -- -- -- -- -- -- -- -- -- -- -- --
Cover CLR SCT SCT SCT SCT SCT SCT SCT SCT SCT SCT SCT SCT SCT
FltCat VFR VFR VFR VFR VFR VFR VFR VFR VFR VFR VFR VFR VFR VFR
WX -- -- -- -- -- -- -- -- -- -- -- -- -- --
WDir VRB VRB VRB VRB VRB VRB VRB VRB VRB VRB VRB VRB VRB VRB
WSpd 3 6 6 6 6 6 6 6 6 6 6 6 6 6
WGst -- -- -- -- -- -- -- -- -- -- -- -- -- --
Raw TAF
KAEG 301120Z 3012/3112 VRB06KT P6SM SCT250

Raw METAR
KAEG 301548Z VRB03KT 10SM CLR 07/02 A3035
KAEG 301452Z 00000KT 10SM CLR 03/01 A3034
KAEG 301350Z 00000KT 10SM CLR 00/M02 A3032

METAR Board
Radar Display
Forecast Discussion
For situational awareness. Not to be used for flight planning purposes.